createdAt,value
2018-09-18T00:00:44.713Z,48.50
2018-09-18T00:03:14.181Z,48.97
2018-09-18T00:05:43.557Z,48.61
2018-09-18T00:08:12.749Z,48.63
2018-09-18T00:10:41.934Z,48.72
2018-09-18T00:13:11.115Z,49.18
2018-09-18T00:15:40.085Z,48.67
2018-09-18T00:18:09.300Z,49.32
2018-09-18T00:20:38.269Z,49.33
2018-09-18T00:23:07.357Z,49.76
2018-09-18T00:25:36.982Z,49.08
2018-09-18T00:28:06.087Z,48.76
2018-09-18T00:30:35.272Z,49.35
2018-09-18T00:33:04.437Z,48.80
2018-09-18T00:35:33.412Z,49.38
2018-09-18T00:38:02.645Z,49.49
2018-09-18T00:40:31.767Z,49.17
2018-09-18T00:43:01.647Z,49.85
2018-09-18T00:45:30.639Z,49.95
2018-09-18T00:47:59.776Z,49.50
2018-09-18T00:50:29.069Z,50.57
2018-09-18T00:52:58.875Z,49.92
2018-09-18T00:55:27.826Z,50.81
2018-09-18T00:57:56.810Z,50.82
2018-09-18T01:00:25.998Z,49.69
2018-09-18T01:02:54.986Z,50.06
2018-09-18T01:05:24.229Z,50.13
2018-09-18T01:07:53.194Z,51.52
2018-09-18T01:10:22.391Z,50.81
2018-09-18T01:12:51.771Z,50.70
2018-09-18T01:15:21.181Z,51.35
2018-09-18T01:17:50.164Z,51.51
2018-09-18T01:20:19.581Z,51.46
2018-09-18T01:22:48.529Z,51.31
2018-09-18T01:25:17.557Z,51.40
2018-09-18T01:27:46.529Z,51.65
2018-09-18T01:30:15.710Z,51.49
2018-09-18T01:32:44.887Z,51.02
2018-09-18T01:35:13.851Z,51.10
2018-09-18T01:37:42.790Z,51.72
2018-09-18T01:40:11.778Z,52.40
2018-09-18T01:42:40.751Z,52.43
2018-09-18T01:45:09.739Z,51.82
2018-09-18T01:47:38.734Z,52.27
2018-09-18T01:50:07.714Z,51.71
2018-09-18T01:52:36.671Z,51.93
2018-09-18T01:55:05.630Z,51.75
2018-09-18T01:57:34.650Z,52.10
2018-09-18T02:00:03.707Z,52.53
2018-09-18T02:02:32.878Z,52.08
2018-09-18T02:05:01.821Z,51.53
2018-09-18T02:07:31.006Z,51.99
2018-09-18T02:09:59.957Z,51.97
2018-09-18T02:12:28.915Z,51.80
2018-09-18T02:14:57.967Z,51.90
2018-09-18T02:17:26.927Z,52.48
2018-09-18T02:19:56.913Z,52.78
2018-09-18T02:22:25.899Z,52.88
2018-09-18T02:24:55.290Z,52.17
2018-09-18T02:27:24.494Z,52.46
2018-09-18T02:29:53.475Z,51.97
2018-09-18T02:32:22.430Z,51.95
2018-09-18T02:34:51.626Z,52.47
2018-09-18T02:37:20.569Z,52.35
2018-09-18T02:39:49.786Z,52.40
2018-09-18T02:42:19.495Z,53.02
2018-09-18T02:44:48.666Z,52.56
2018-09-18T02:47:18.034Z,53.17
2018-09-18T02:49:47.397Z,53.30
2018-09-18T02:52:16.418Z,53.65
2018-09-18T02:54:45.614Z,53.70
2018-09-18T02:57:14.610Z,53.54
2018-09-18T02:59:43.597Z,53.73
2018-09-18T03:02:12.846Z,53.78
2018-09-18T03:04:41.805Z,54.20
2018-09-18T03:07:10.785Z,53.98
2018-09-18T03:09:39.755Z,54.03
2018-09-18T03:12:09.201Z,53.82
2018-09-18T03:14:38.181Z,53.68
2018-09-18T03:17:07.159Z,54.12
2018-09-18T03:19:36.374Z,53.60
2018-09-18T03:22:05.332Z,53.06
2018-09-18T03:24:34.302Z,53.37
2018-09-18T03:27:03.516Z,53.15
2018-09-18T03:29:32.542Z,53.20
2018-09-18T03:32:01.756Z,53.80
2018-09-18T03:34:37.048Z,53.62
2018-09-18T03:37:06.234Z,54.12
2018-09-18T03:39:35.418Z,53.86
2018-09-18T03:42:04.592Z,53.76
2018-09-18T03:44:33.631Z,54.06
2018-09-18T03:47:03.274Z,54.41
2018-09-18T03:49:32.489Z,54.19
2018-09-18T03:52:01.486Z,54.72
2018-09-18T03:54:30.436Z,54.19
2018-09-18T03:56:59.397Z,53.74
2018-09-18T03:59:28.567Z,54.11
2018-09-18T04:01:57.747Z,54.13
2018-09-18T04:04:26.938Z,55.69
2018-09-18T04:06:56.026Z,58.37
2018-09-18T04:09:24.995Z,56.67
2018-09-18T04:11:53.954Z,58.24
2018-09-18T04:14:22.934Z,56.87
2018-09-18T04:16:51.902Z,56.81
2018-09-18T04:19:21.118Z,59.08
2018-09-18T04:21:50.314Z,57.98
2018-09-18T04:24:19.283Z,58.24
2018-09-18T04:26:48.250Z,59.03
2018-09-18T04:29:17.580Z,57.04
2018-09-18T04:31:46.554Z,55.95
2018-09-18T04:34:15.938Z,54.86
2018-09-18T04:36:44.921Z,54.06
2018-09-18T04:39:14.165Z,54.50
2018-09-18T04:41:43.134Z,53.87
2018-09-18T04:44:12.106Z,54.36
2018-09-18T04:46:41.098Z,54.74
2018-09-18T04:49:10.114Z,54.79
2018-09-18T04:51:39.090Z,54.57
2018-09-18T04:54:08.061Z,55.36
2018-09-18T04:56:37.030Z,55.10
2018-09-18T04:59:06.138Z,53.87
2018-09-18T05:01:35.366Z,54.22
2018-09-18T05:04:04.968Z,54.06
2018-09-18T05:06:33.980Z,54.24
2018-09-18T05:09:02.977Z,54.55
2018-09-18T05:11:32.206Z,54.45
2018-09-18T05:14:01.777Z,54.65
2018-09-18T05:16:31.017Z,54.41
2018-09-18T05:19:00.006Z,54.78
2018-09-18T05:21:29.257Z,55.17
2018-09-18T05:23:58.234Z,54.83
2018-09-18T05:26:27.217Z,54.52
2018-09-18T05:28:56.299Z,55.17
2018-09-18T05:31:25.444Z,54.01
2018-09-18T05:33:54.641Z,55.48
2018-09-18T05:36:24.036Z,54.54
2018-09-18T05:38:53.574Z,55.00
2018-09-18T05:41:22.577Z,54.17
2018-09-18T05:43:51.834Z,54.73
2018-09-18T05:46:20.854Z,54.16
2018-09-18T05:48:49.998Z,53.72
2018-09-18T05:51:19.003Z,54.26
2018-09-18T05:53:48.225Z,56.38
2018-09-18T05:56:17.221Z,54.53
2018-09-18T05:58:46.410Z,55.45
2018-09-18T06:01:15.843Z,57.33
2018-09-18T06:03:45.022Z,56.39
2018-09-18T06:06:14.019Z,55.01
2018-09-18T06:08:43.455Z,54.16
2018-09-18T06:11:12.465Z,56.22
2018-09-18T06:13:41.437Z,53.68
2018-09-18T06:16:10.810Z,54.50
2018-09-18T06:18:39.818Z,52.99
2018-09-18T06:21:08.770Z,54.04
2018-09-18T06:23:37.825Z,55.75
2018-09-18T06:26:07.074Z,54.16
2018-09-18T06:28:36.293Z,53.90
2018-09-18T06:31:05.261Z,52.66
2018-09-18T06:33:34.441Z,52.70
2018-09-18T06:36:03.471Z,53.71
2018-09-18T06:38:32.464Z,52.65
2018-09-18T06:41:01.447Z,52.63
2018-09-18T06:43:30.467Z,53.46
2018-09-18T06:45:59.714Z,54.20
2018-09-18T06:48:28.702Z,53.39
2018-09-18T06:50:57.979Z,53.86
2018-09-18T06:53:26.989Z,53.16
2018-09-18T06:55:56.026Z,51.15
2018-09-18T06:58:25.074Z,51.46
2018-09-18T07:00:54.218Z,50.84
2018-09-18T07:03:24.321Z,50.65
2018-09-18T07:05:53.809Z,51.30
2018-09-18T07:08:23.654Z,53.58
2018-09-18T07:10:53.180Z,52.78
2018-09-18T07:13:22.485Z,51.32
2018-09-18T07:15:51.550Z,52.20
2018-09-18T07:18:20.585Z,52.89
2018-09-18T07:20:49.624Z,52.06
2018-09-18T07:23:18.618Z,52.62
2018-09-18T07:25:47.615Z,52.76
2018-09-18T07:28:17.074Z,51.24
2018-09-18T07:30:46.084Z,51.56
2018-09-18T07:33:15.801Z,52.17
2018-09-18T07:35:44.895Z,51.32
2018-09-18T07:38:14.278Z,52.54
2018-09-18T07:40:44.110Z,50.80
2018-09-18T07:43:14.034Z,52.85
2018-09-18T07:45:43.807Z,51.56
2018-09-18T07:48:12.997Z,50.13
2018-09-18T07:50:42.096Z,50.57
2018-09-18T07:53:11.395Z,50.37
2018-09-18T07:55:40.565Z,51.30
2018-09-18T07:58:09.648Z,50.75
2018-09-18T08:00:39.597Z,51.14
2018-09-18T08:03:09.148Z,49.71
2018-09-18T08:05:38.155Z,49.34
2018-09-18T08:08:07.396Z,50.08
2018-09-18T08:10:36.461Z,49.93
2018-09-18T08:13:05.786Z,48.92
2018-09-18T08:15:34.975Z,47.71
2018-09-18T08:18:04.299Z,48.37
2018-09-18T08:20:33.277Z,48.37
2018-09-18T08:23:02.258Z,50.65
2018-09-18T08:25:31.283Z,50.33
2018-09-18T08:28:00.248Z,48.37
2018-09-18T08:30:29.630Z,50.27
2018-09-18T08:32:58.902Z,49.35
2018-09-18T08:35:34.359Z,48.50
2018-09-18T08:38:03.719Z,49.21
2018-09-18T08:40:32.963Z,48.85
2018-09-18T08:43:02.309Z,47.94
2018-09-18T08:45:31.374Z,48.99
2018-09-18T08:48:00.474Z,49.57
2018-09-18T08:50:29.809Z,49.31
2018-09-18T08:52:59.460Z,47.48
2018-09-18T08:55:29.362Z,47.98
2018-09-18T08:57:58.704Z,48.05
2018-09-18T09:00:28.043Z,48.00
2018-09-18T09:02:58.570Z,47.60
2018-09-18T09:05:27.751Z,47.24
2018-09-18T09:07:56.953Z,49.83
2018-09-18T09:10:26.067Z,49.28
2018-09-18T09:12:55.129Z,48.04
2018-09-18T09:15:24.146Z,47.96
2018-09-18T09:17:53.255Z,48.31
2018-09-18T09:20:22.242Z,48.23
2018-09-18T09:22:51.291Z,47.16
2018-09-18T09:25:20.330Z,47.52
2018-09-18T09:27:49.399Z,48.28
2018-09-18T09:30:18.348Z,47.89
2018-09-18T09:32:47.662Z,47.54
2018-09-18T09:35:16.704Z,46.99
2018-09-18T09:37:45.767Z,47.31
2018-09-18T09:40:15.072Z,47.23
2018-09-18T09:42:44.182Z,47.20
2018-09-18T09:45:13.450Z,47.18
2018-09-18T09:47:42.633Z,47.07
2018-09-18T09:50:11.710Z,47.43
2018-09-18T09:52:40.751Z,47.05
2018-09-18T09:55:09.935Z,46.19
2018-09-18T09:57:39.503Z,46.18
2018-09-18T10:00:13.373Z,46.55
2018-09-18T10:02:47.740Z,44.80
2018-09-18T10:05:18.231Z,45.15
2018-09-18T10:07:47.521Z,43.95
2018-09-18T10:10:16.684Z,44.87
2018-09-18T10:12:45.931Z,44.65
2018-09-18T10:15:15.376Z,44.34
2018-09-18T10:17:44.369Z,44.01
2018-09-18T10:20:13.685Z,44.32
2018-09-18T10:22:42.998Z,43.48
2018-09-18T10:25:12.092Z,43.94
2018-09-18T10:27:41.110Z,43.61
2018-09-18T10:30:10.369Z,43.97
2018-09-18T10:32:39.359Z,42.80
2018-09-18T10:35:08.376Z,42.84
2018-09-18T10:37:37.368Z,42.62
2018-09-18T10:40:06.414Z,42.37
2018-09-18T10:42:35.412Z,42.92
2018-09-18T10:45:05.276Z,42.15
2018-09-18T10:47:34.891Z,42.29
2018-09-18T10:50:03.908Z,40.33
2018-09-18T10:52:33.314Z,41.42
2018-09-18T10:55:02.621Z,40.05
2018-09-18T10:57:31.638Z,40.27
2018-09-18T11:00:00.724Z,40.05
2018-09-18T11:02:31.931Z,39.46
2018-09-18T11:05:01.679Z,38.83
2018-09-18T11:07:30.730Z,38.70
2018-09-18T11:09:59.974Z,39.42
2018-09-18T11:12:29.392Z,38.17
2018-09-18T11:14:58.658Z,38.43
2018-09-18T11:17:27.658Z,38.58
2018-09-18T11:19:57.066Z,37.29
2018-09-18T11:22:26.312Z,36.78
2018-09-18T11:24:55.573Z,37.86
2018-09-18T11:27:24.637Z,36.00
2018-09-18T11:29:53.644Z,35.87
2018-09-18T11:32:22.847Z,36.46
2018-09-18T11:34:51.813Z,35.62
2018-09-18T11:37:20.838Z,35.20
2018-09-18T11:39:49.942Z,34.94
2018-09-18T11:42:18.939Z,36.18
2018-09-18T11:44:47.953Z,35.16
2018-09-18T11:47:17.133Z,35.15
2018-09-18T11:49:46.130Z,35.03
2018-09-18T11:52:15.430Z,36.10
2018-09-18T11:54:44.698Z,34.89
2018-09-18T11:57:14.183Z,35.92
2018-09-18T11:59:43.130Z,35.37
2018-09-18T12:02:12.327Z,35.02
2018-09-18T12:04:41.613Z,39.76
2018-09-18T12:07:10.832Z,37.27
2018-09-18T12:09:39.854Z,39.19
2018-09-18T12:12:09.267Z,36.24
2018-09-18T12:14:38.250Z,37.54
2018-09-18T12:17:07.580Z,33.97
2018-09-18T12:19:36.514Z,34.76
2018-09-18T12:22:05.728Z,34.88
2018-09-18T12:24:34.731Z,33.38
2018-09-18T12:27:03.955Z,32.72
2018-09-18T12:29:33.138Z,32.61
2018-09-18T12:32:02.119Z,33.27
2018-09-18T12:34:31.147Z,33.39
2018-09-18T12:37:00.124Z,33.83
2018-09-18T12:39:29.114Z,33.20
2018-09-18T12:41:58.574Z,32.43
2018-09-18T12:44:27.470Z,31.42
2018-09-18T12:46:56.470Z,30.96
2018-09-18T12:49:25.743Z,30.47
2018-09-18T12:51:54.558Z,31.46
2018-09-18T12:54:23.887Z,31.58
2018-09-18T12:56:52.897Z,31.56
2018-09-18T12:59:21.942Z,31.26
2018-09-18T13:01:50.916Z,30.65
2018-09-18T13:04:19.915Z,31.07
2018-09-18T13:06:49.499Z,30.85
2018-09-18T13:09:18.427Z,31.18
2018-09-18T13:11:47.406Z,31.43
2018-09-18T13:14:16.544Z,32.58
2018-09-18T13:16:45.637Z,32.36
2018-09-18T13:19:14.612Z,31.29
2018-09-18T13:21:43.884Z,31.25
2018-09-18T13:24:12.968Z,32.59
2018-09-18T13:26:42.213Z,32.86
2018-09-18T13:29:11.277Z,33.50
2018-09-18T13:31:40.305Z,33.36
2018-09-18T13:34:09.261Z,32.54
2018-09-18T13:36:38.349Z,32.36
2018-09-18T13:39:08.334Z,31.27
2018-09-18T13:41:37.655Z,31.96
2018-09-18T13:44:06.964Z,31.21
2018-09-18T13:46:36.500Z,31.02
2018-09-18T13:49:05.384Z,31.25
2018-09-18T13:51:34.362Z,30.22
2018-09-18T13:54:03.158Z,31.40
2018-09-18T13:56:32.218Z,31.24
2018-09-18T13:59:01.348Z,29.54
2018-09-18T14:01:30.734Z,29.81
2018-09-18T14:03:59.682Z,29.44
2018-09-18T14:06:29.142Z,29.71
2018-09-18T14:08:58.151Z,29.71
2018-09-18T14:11:27.416Z,29.33
2018-09-18T14:13:56.630Z,29.67
2018-09-18T14:16:25.621Z,29.90
2018-09-18T14:18:54.634Z,28.94
2018-09-18T14:21:23.971Z,29.28
2018-09-18T14:23:52.942Z,29.59
2018-09-18T14:26:22.203Z,28.88
2018-09-18T14:28:51.194Z,28.45
2018-09-18T14:31:20.390Z,30.47
2018-09-18T14:33:49.413Z,29.09
2018-09-18T14:36:18.442Z,28.82
2018-09-18T14:38:47.990Z,29.97
2018-09-18T14:41:17.262Z,28.58
2018-09-18T14:43:46.252Z,28.55
2018-09-18T14:46:15.234Z,29.17
2018-09-18T14:48:44.281Z,28.38
2018-09-18T14:51:13.447Z,29.02
2018-09-18T14:53:42.859Z,28.91
2018-09-18T14:56:12.132Z,29.12
2018-09-18T14:58:41.099Z,28.31
2018-09-18T15:01:10.141Z,28.26
2018-09-18T15:03:40.840Z,28.61
2018-09-18T15:06:11.212Z,28.57
2018-09-18T15:08:40.183Z,28.45
2018-09-18T15:11:09.679Z,28.91
2018-09-18T15:13:38.756Z,28.74
2018-09-18T15:16:08.622Z,28.26
2018-09-18T15:18:37.824Z,27.97
2018-09-18T15:21:08.498Z,28.90
2018-09-18T15:23:39.449Z,27.84
2018-09-18T15:26:08.785Z,27.43
2018-09-18T15:28:38.796Z,27.74
2018-09-18T15:31:08.118Z,26.16
2018-09-18T15:33:37.837Z,26.90
2018-09-18T15:36:07.786Z,26.63
2018-09-18T15:38:36.974Z,26.18
2018-09-18T15:41:06.118Z,25.69
2018-09-18T15:43:36.844Z,26.61
2018-09-18T15:46:08.249Z,27.13
2018-09-18T15:48:38.268Z,27.76
2018-09-18T15:51:07.264Z,28.09
2018-09-18T15:53:36.440Z,28.84
2018-09-18T15:56:05.458Z,27.00
2018-09-18T15:58:34.800Z,27.24
2018-09-18T16:01:04.071Z,26.68
2018-09-18T16:03:33.307Z,27.33
2018-09-18T16:06:02.557Z,28.66
2018-09-18T16:08:31.600Z,28.62
2018-09-18T16:11:00.910Z,28.06
2018-09-18T16:13:30.367Z,27.87
2018-09-18T16:15:59.419Z,27.60
2018-09-18T16:18:28.560Z,27.81
2018-09-18T16:20:57.850Z,28.50
2018-09-18T16:23:27.458Z,28.28
2018-09-18T16:25:56.598Z,27.86
2018-09-18T16:28:25.771Z,28.95
2018-09-18T16:30:55.436Z,29.07
2018-09-18T16:33:24.955Z,28.49
2018-09-18T16:35:55.914Z,28.94
2018-09-18T16:38:25.221Z,29.47
2018-09-18T16:41:01.537Z,29.49
2018-09-18T16:43:31.241Z,29.53
2018-09-18T16:48:47.981Z,30.42
2018-09-18T16:51:17.888Z,30.87
2018-09-18T16:53:49.901Z,30.68
2018-09-18T16:56:20.163Z,30.50
2018-09-18T16:58:49.527Z,30.59
2018-09-18T17:01:18.681Z,30.45
2018-09-18T17:03:48.274Z,29.95
2018-09-18T17:06:18.663Z,30.66
2018-09-18T17:08:48.511Z,31.11
2018-09-18T17:11:18.310Z,31.34
2018-09-18T17:13:54.089Z,31.38
2018-09-18T17:16:24.780Z,31.05
2018-09-18T17:18:54.923Z,31.49
2018-09-18T17:21:25.795Z,32.16
2018-09-18T17:23:55.808Z,31.06
2018-09-18T17:26:27.804Z,31.09
2018-09-18T17:31:59.110Z,31.54
2018-09-18T17:37:49.648Z,31.83
2018-09-18T17:40:19.194Z,33.17
2018-09-18T17:42:49.632Z,33.22
2018-09-18T17:51:14.875Z,35.09
2018-09-18T17:53:45.038Z,36.08
2018-09-18T17:56:14.234Z,34.99
2018-09-18T17:58:44.229Z,36.56
2018-09-18T18:01:13.863Z,37.02
2018-09-18T18:03:42.972Z,37.15
2018-09-18T18:06:12.108Z,37.45
2018-09-18T18:08:42.694Z,37.38
2018-09-18T18:11:12.010Z,37.47
2018-09-18T18:13:41.804Z,38.20
2018-09-18T18:16:10.942Z,38.31
2018-09-18T18:18:40.131Z,37.61
2018-09-18T18:21:09.370Z,37.33
2018-09-18T18:23:39.124Z,37.61
2018-09-18T18:26:08.325Z,38.67
2018-09-18T18:28:38.228Z,38.48
2018-09-18T18:31:07.593Z,38.69
2018-09-18T18:33:37.078Z,38.32
2018-09-18T18:36:06.372Z,38.76
2018-09-18T18:38:36.624Z,38.26
2018-09-18T18:41:07.174Z,38.39
2018-09-18T18:43:38.320Z,37.78
2018-09-18T18:46:08.673Z,38.11
2018-09-18T18:48:43.730Z,38.14
2018-09-18T18:54:05.155Z,39.43
2018-09-18T18:56:39.367Z,39.66
2018-09-18T18:59:10.688Z,38.99
2018-09-18T19:01:41.750Z,39.66
2018-09-18T19:04:11.354Z,39.75
2018-09-18T19:06:41.128Z,39.58
2018-09-18T19:09:10.784Z,39.91
2018-09-18T19:11:39.984Z,39.29
2018-09-18T19:14:09.174Z,40.40
2018-09-18T19:16:38.692Z,40.60
2018-09-18T19:19:16.730Z,39.85
2018-09-18T19:21:46.473Z,40.02
2018-09-18T19:24:16.179Z,39.85
2018-09-18T19:29:37.812Z,40.45
2018-09-18T19:32:07.310Z,40.74
2018-09-18T19:34:37.408Z,41.20
2018-09-18T19:37:06.763Z,40.55
2018-09-18T19:39:36.952Z,39.70
2018-09-18T19:42:05.965Z,40.75
2018-09-18T19:44:35.699Z,40.41
2018-09-18T19:47:13.283Z,39.80
2018-09-18T19:49:54.622Z,39.86
2018-09-18T19:52:28.775Z,40.41
2018-09-18T19:55:07.586Z,41.61
2018-09-18T19:57:36.890Z,41.29
2018-09-18T20:00:07.113Z,41.04
2018-09-18T20:02:37.679Z,41.21
2018-09-18T20:05:13.820Z,40.78
2018-09-18T20:07:44.109Z,41.30
2018-09-18T20:10:13.619Z,40.96
2018-09-18T20:12:43.673Z,41.15
2018-09-18T20:15:15.755Z,40.93
2018-09-18T20:17:45.402Z,40.87
2018-09-18T20:20:16.130Z,40.87
2018-09-18T20:22:45.992Z,41.08
2018-09-18T20:25:15.172Z,41.05
2018-09-18T20:27:44.394Z,40.91
2018-09-18T20:30:13.543Z,41.79
2018-09-18T20:32:42.662Z,40.88
2018-09-18T20:35:12.501Z,40.70
2018-09-18T20:37:41.554Z,40.70
2018-09-18T20:40:10.848Z,41.49
2018-09-18T20:42:40.232Z,41.14
2018-09-18T20:45:09.561Z,40.71
2018-09-18T20:47:38.658Z,41.47
2018-09-18T20:50:15.576Z,42.00
2018-09-18T20:52:47.485Z,41.48
2018-09-18T20:55:19.549Z,40.79
2018-09-18T20:57:48.729Z,40.92
2018-09-18T21:00:22.771Z,41.74
2018-09-18T21:02:53.608Z,41.31
2018-09-18T21:05:24.267Z,41.72
2018-09-18T21:07:55.761Z,41.72
2018-09-18T21:10:25.778Z,41.30
2018-09-18T21:12:56.633Z,41.65
2018-09-18T21:15:26.074Z,41.71
2018-09-18T21:17:55.823Z,41.42
2018-09-18T21:20:24.883Z,41.82
2018-09-18T21:22:54.400Z,42.56
2018-09-18T21:26:08.277Z,41.74
2018-09-18T21:28:37.756Z,41.32
2018-09-18T21:31:07.089Z,41.86
2018-09-18T21:33:37.633Z,44.35
2018-09-18T21:36:07.927Z,43.56
2018-09-18T21:38:38.461Z,42.88
2018-09-18T21:41:08.769Z,41.23
2018-09-18T21:43:38.473Z,42.22
2018-09-18T21:46:08.296Z,41.05
2018-09-18T21:48:39.454Z,41.72
2018-09-18T21:51:10.134Z,41.62
2018-09-18T21:53:39.658Z,41.48
2018-09-18T21:56:08.906Z,43.02
2018-09-18T21:58:39.210Z,41.03
2018-09-18T22:01:10.340Z,41.14
2018-09-18T22:03:40.553Z,41.53
2018-09-18T22:06:11.023Z,42.14
2018-09-18T22:08:41.273Z,41.61
2018-09-18T22:11:10.380Z,41.53
2018-09-18T22:13:39.574Z,41.41
2018-09-18T22:16:08.771Z,41.56
2018-09-18T22:18:37.971Z,41.69
2018-09-18T22:21:07.214Z,40.60
2018-09-18T22:23:36.439Z,40.99
2018-09-18T22:26:05.439Z,41.28
2018-09-18T22:28:34.603Z,41.62
2018-09-18T22:31:03.579Z,40.76
2018-09-18T22:33:32.613Z,40.94
2018-09-18T22:36:07.835Z,40.75
2018-09-18T22:38:37.006Z,41.23
2018-09-18T22:41:06.338Z,41.73
2018-09-18T22:43:35.352Z,41.91
2018-09-18T22:46:04.542Z,41.85
2018-09-18T22:48:33.523Z,40.97
2018-09-18T22:51:02.489Z,40.71
2018-09-18T22:53:31.657Z,40.59
2018-09-18T22:56:00.722Z,41.27
2018-09-18T22:58:29.763Z,41.91
2018-09-18T23:00:58.742Z,41.18
2018-09-18T23:03:27.855Z,41.26
2018-09-18T23:05:56.907Z,41.48
2018-09-18T23:08:26.035Z,42.96
2018-09-18T23:10:55.268Z,45.22
2018-09-18T23:13:24.469Z,43.72
2018-09-18T23:15:53.507Z,43.06
2018-09-18T23:18:22.537Z,43.59
2018-09-18T23:20:51.517Z,42.32
2018-09-18T23:23:20.812Z,43.51
2018-09-18T23:25:51.320Z,42.55
2018-09-18T23:28:20.646Z,42.44
2018-09-18T23:30:52.405Z,43.34
2018-09-18T23:33:21.400Z,45.07
2018-09-18T23:35:50.629Z,44.18
2018-09-18T23:38:19.594Z,43.74
2018-09-18T23:40:48.564Z,43.49
2018-09-18T23:43:17.988Z,43.22
2018-09-18T23:45:47.175Z,43.85
2018-09-18T23:48:16.382Z,43.24
2018-09-18T23:50:45.358Z,43.22
2018-09-18T23:53:14.325Z,43.71
2018-09-18T23:55:43.502Z,43.92
2018-09-18T23:58:12.767Z,43.53
